Daneborg

KL  EN  DA
ASIAQ
Weather Now GREENLAND SURVEY
Updated [WGT/WGST] Temperature [°C] Wind [m/s] Air pressure [hPa] Relative humidity [%] Precipitation [mm]
Present Wind chill Speed Max
18.04 01:00-17,8-26,34,1 ⇘6,2101185n/a
18.04 00:00-12,4-21,05,7 ⇓7,7101174n/a
17.04 23:00-11,6-20,05,7 ⇓7,2101274n/a
17.04 22:00-13,7-18,62,1 ⇓2,6101389n/a
17.04 21:00-12,5-19,23,6 ⇓4,1101384n/a
17.04 20:00n/an/an/an/an/an/an/a
17.04 19:00-11,4-17,93,6 ⇖5,1101374n/a
17.04 18:00-9,4-13,62,1 ⇖4,6101376n/a
17.04 17:00-8,0-11,92,1 ⇖3,1101357n/a
17.04 16:00-8,7-12,72,1 ⇑2,6101262n/a
17.04 15:00-7,4-13,03,6 ⇓5,1101256n/a
17.04 14:00-7,3-14,86,2 ⇓8,2101257n/a
17.04 13:00-7,7-15,97,2 ⇓9,8101266n/a
17.04 12:00-7,9-16,27,2 ⇓10,3101175n/a
17.04 11:00-8,5-18,29,8 ⇘11,8101187n/a
17.04 10:00-9,0-19,310,8 ⇘13,9101089n/a
17.04 09:00-9,0-20,714,9 ⇘19,0100990n/a
17.04 08:00-9,4-21,817,0 ⇘24,2100890n/a
17.04 07:00-9,6-22,819,6 ⇘25,2100890n/a
17.04 06:00-10,2-23,519,0 ⇓23,7100889n/a
17.04 05:00-10,7-24,620,6 ⇓29,9101090n/a
17.04 04:00-11,2-25,521,6 ⇓31,4101090n/a
17.04 03:00-12,2-27,122,1 ⇓29,9101188n/a
17.04 02:00-13,1-28,121,1 ⇓28,8101387n/a
17.04 01:00-14,0-29,019,6 ⇓25,7101586n/a
Position: (74.3075,-20.21694444)

[Back]